DAL1094 KLAS-KSLC
Flight info
| Callsign | DAL1094 |
|---|---|
| Flight time | 0h 56m |
| Altitude | 33000 |
| Route | RATPK3 FRNCK MLF PITTT2 |
| Aircraft | A320/M-SDE3FGHIRWY/LB1 |
Departure
| Time | 2026-05-05 21:18 |
|---|---|
| Airport | Harry Reid International Airport (KLAS) |
Arrival
| Time | 2026-05-05 22:14 |
|---|---|
| Airport | Salt Lake City International Airport (KSLC) |
| Time | Latitude | Longitude | Altitude | Speed | Heading |
|---|---|---|---|---|---|
| 2026-05-05 20:57 | 36.07982 | -115.14003 | 2188 ft | 0 kts | 25° |
| 2026-05-05 21:10 | 36.07974 | -115.14008 | 2191 ft | 4 kts | 25° |
| 2026-05-05 21:10 | 36.07949 | -115.14022 | 2191 ft | 4 kts | 26° |
| 2026-05-05 21:10 | 36.07930 | -115.14034 | 2188 ft | 4 kts | 36° |
| 2026-05-05 21:11 | 36.07912 | -115.14059 | 2190 ft | 4 kts | 73° |
| 2026-05-05 21:11 | 36.07909 | -115.14076 | 2191 ft | 0 kts | 89° |
| 2026-05-05 21:13 | 36.07909 | -115.14075 | 2191 ft | 1 kts | 90° |
| 2026-05-05 21:13 | 36.07895 | -115.14057 | 2192 ft | 5 kts | 143° |
| 2026-05-05 21:14 | 36.07860 | -115.14010 | 2188 ft | 10 kts | 139° |
| 2026-05-05 21:14 | 36.07828 | -115.13921 | 2188 ft | 14 kts | 91° |
| 2026-05-05 21:14 | 36.07828 | -115.13790 | 2191 ft | 16 kts | 90° |
| 2026-05-05 21:14 | 36.07829 | -115.13646 | 2190 ft | 17 kts | 90° |
| 2026-05-05 21:15 | 36.07828 | -115.13492 | 2192 ft | 18 kts | 90° |
| 2026-05-05 21:15 | 36.07828 | -115.13328 | 2189 ft | 20 kts | 90° |
| 2026-05-05 21:15 | 36.07828 | -115.13152 | 2188 ft | 21 kts | 89° |
| 2026-05-05 21:15 | 36.07830 | -115.12964 | 2188 ft | 22 kts | 90° |
| 2026-05-05 21:16 | 36.07829 | -115.12774 | 2188 ft | 20 kts | 90° |
| 2026-05-05 21:16 | 36.07809 | -115.12645 | 2189 ft | 13 kts | 143° |
| 2026-05-05 21:16 | 36.07736 | -115.12604 | 2189 ft | 10 kts | 153° |
| 2026-05-05 21:16 | 36.07675 | -115.12592 | 2190 ft | 7 kts | 181° |
| 2026-05-05 21:17 | 36.07648 | -115.12619 | 2189 ft | 5 kts | 236° |
| 2026-05-05 21:17 | 36.07641 | -115.12707 | 2193 ft | 13 kts | 272° |
| 2026-05-05 21:17 | 36.07641 | -115.12961 | 2191 ft | 63 kts | 269° |
| 2026-05-05 21:17 | 36.07639 | -115.13794 | 2189 ft | 127 kts | 270° |
| 2026-05-05 21:18 | 36.07636 | -115.15103 | 2191 ft | 175 kts | 269° |
| 2026-05-05 21:18 | 36.07638 | -115.16701 | 2609 ft | 185 kts | 271° |
| 2026-05-05 21:18 | 36.07652 | -115.18280 | 3390 ft | 183 kts | 270° |
| 2026-05-05 21:18 | 36.07651 | -115.19848 | 4025 ft | 190 kts | 269° |
| 2026-05-05 21:19 | 36.07646 | -115.21571 | 4349 ft | 212 kts | 269° |
| 2026-05-05 21:19 | 36.07641 | -115.23498 | 4621 ft | 236 kts | 269° |
| 2026-05-05 21:19 | 36.07645 | -115.25628 | 5183 ft | 250 kts | 272° |
| 2026-05-05 21:19 | 36.08147 | -115.27650 | 5949 ft | 256 kts | 306° |
| 2026-05-05 21:20 | 36.09541 | -115.28992 | 6751 ft | 259 kts | 337° |
| 2026-05-05 21:20 | 36.11258 | -115.29670 | 7633 ft | 260 kts | 347° |
| 2026-05-05 21:20 | 36.13060 | -115.29889 | 8489 ft | 263 kts | 8° |
| 2026-05-05 21:20 | 36.14799 | -115.29180 | 9319 ft | 266 kts | 29° |
| 2026-05-05 21:21 | 36.16298 | -115.27755 | 9843 ft | 283 kts | 49° |
| 2026-05-05 21:21 | 36.17372 | -115.25647 | 10237 ft | 301 kts | 65° |
| 2026-05-05 21:21 | 36.18185 | -115.23148 | 10476 ft | 325 kts | 68° |
| 2026-05-05 21:21 | 36.19018 | -115.20444 | 10733 ft | 345 kts | 72° |
| 2026-05-05 21:22 | 36.19529 | -115.17504 | 11338 ft | 353 kts | 83° |
| 2026-05-05 21:22 | 36.19615 | -115.14451 | 12054 ft | 358 kts | 89° |
| 2026-05-05 21:22 | 36.19614 | -115.11354 | 12778 ft | 361 kts | 89° |
| 2026-05-05 21:22 | 36.19616 | -115.08224 | 13462 ft | 365 kts | 89° |
| 2026-05-05 21:23 | 36.19617 | -115.05073 | 14125 ft | 368 kts | 89° |
| 2026-05-05 21:23 | 36.19618 | -115.01893 | 14792 ft | 370 kts | 89° |
| 2026-05-05 21:23 | 36.19619 | -114.98693 | 15469 ft | 372 kts | 89° |
| 2026-05-05 21:23 | 36.19619 | -114.95480 | 16130 ft | 375 kts | 89° |
| 2026-05-05 21:24 | 36.19694 | -114.92252 | 16770 ft | 377 kts | 83° |
| 2026-05-05 21:24 | 36.20228 | -114.89070 | 17387 ft | 379 kts | 72° |
| 2026-05-05 21:24 | 36.21270 | -114.86062 | 18000 ft | 382 kts | 60° |
| 2026-05-05 21:24 | 36.22784 | -114.83341 | 18555 ft | 385 kts | 51° |
| 2026-05-05 21:25 | 36.24494 | -114.80777 | 19116 ft | 387 kts | 51° |
| 2026-05-05 21:25 | 36.26213 | -114.78194 | 19674 ft | 390 kts | 51° |
| 2026-05-05 21:25 | 36.27941 | -114.75596 | 20229 ft | 392 kts | 51° |
| 2026-05-05 21:25 | 36.29678 | -114.72984 | 20772 ft | 394 kts | 50° |
| 2026-05-05 21:26 | 36.31425 | -114.70358 | 21306 ft | 396 kts | 51° |
| 2026-05-05 21:26 | 36.33161 | -114.67748 | 21823 ft | 398 kts | 51° |
| 2026-05-05 21:26 | 36.34925 | -114.65090 | 22350 ft | 400 kts | 51° |
| 2026-05-05 21:26 | 36.36767 | -114.62490 | 22836 ft | 402 kts | 45° |
| 2026-05-05 21:27 | 36.38909 | -114.60248 | 23322 ft | 405 kts | 38° |
| 2026-05-05 21:27 | 36.41154 | -114.58131 | 23737 ft | 406 kts | 38° |
| 2026-05-05 21:27 | 36.43411 | -114.55999 | 24151 ft | 408 kts | 38° |
| 2026-05-05 21:27 | 36.45665 | -114.53866 | 24555 ft | 409 kts | 38° |
| 2026-05-05 21:28 | 36.47932 | -114.51720 | 24951 ft | 410 kts | 38° |
| 2026-05-05 21:28 | 36.50197 | -114.49567 | 25341 ft | 411 kts | 38° |
| 2026-05-05 21:28 | 36.52466 | -114.47403 | 25725 ft | 412 kts | 38° |
| 2026-05-05 21:28 | 36.54774 | -114.45284 | 26114 ft | 413 kts | 34° |
| 2026-05-05 21:29 | 36.57211 | -114.43382 | 26482 ft | 414 kts | 33° |
| 2026-05-05 21:29 | 36.59669 | -114.41479 | 26846 ft | 415 kts | 33° |
| 2026-05-05 21:29 | 36.62126 | -114.39581 | 27201 ft | 416 kts | 33° |
| 2026-05-05 21:29 | 36.64589 | -114.37679 | 27545 ft | 417 kts | 33° |
| 2026-05-05 21:30 | 36.67059 | -114.35771 | 27882 ft | 418 kts | 33° |
| 2026-05-05 21:30 | 36.69532 | -114.33856 | 28213 ft | 419 kts | 33° |
| 2026-05-05 21:30 | 36.72008 | -114.31936 | 28528 ft | 420 kts | 34° |
| 2026-05-05 21:30 | 36.74456 | -114.30034 | 28828 ft | 420 kts | 34° |
| 2026-05-05 21:31 | 36.76940 | -114.28100 | 29125 ft | 421 kts | 34° |
| 2026-05-05 21:31 | 36.79426 | -114.26160 | 29399 ft | 421 kts | 34° |
| 2026-05-05 21:31 | 36.81905 | -114.24224 | 29781 ft | 419 kts | 34° |
| 2026-05-05 21:31 | 36.84373 | -114.22299 | 30133 ft | 417 kts | 34° |
| 2026-05-05 21:32 | 36.86838 | -114.20380 | 30413 ft | 417 kts | 34° |
| 2026-05-05 21:32 | 36.89300 | -114.18461 | 30671 ft | 418 kts | 34° |
| 2026-05-05 21:32 | 36.91766 | -114.16535 | 30913 ft | 418 kts | 34° |
| 2026-05-05 21:32 | 36.93405 | -114.15253 | 31082 ft | 418 kts | 34° |
| 2026-05-05 21:33 | 36.96702 | -114.12668 | 31425 ft | 419 kts | 34° |
| 2026-05-05 21:33 | 36.98341 | -114.11383 | 31599 ft | 419 kts | 34° |
| 2026-05-05 21:33 | 37.00809 | -114.09447 | 31859 ft | 419 kts | 34° |
| 2026-05-05 21:33 | 37.03281 | -114.07510 | 32132 ft | 419 kts | 34° |
| 2026-05-05 21:34 | 37.06553 | -114.04938 | 32474 ft | 419 kts | 34° |
| 2026-05-05 21:34 | 37.08221 | -114.03626 | 32654 ft | 419 kts | 34° |
| 2026-05-05 21:34 | 37.10696 | -114.01678 | 32798 ft | 420 kts | 34° |
| 2026-05-05 21:34 | 37.13165 | -113.99738 | 32826 ft | 419 kts | 34° |
| 2026-05-05 21:35 | 37.18098 | -113.95858 | 32828 ft | 418 kts | 34° |
| 2026-05-05 21:35 | 37.23013 | -113.91983 | 32826 ft | 417 kts | 34° |
| 2026-05-05 21:36 | 37.27919 | -113.88111 | 32826 ft | 416 kts | 34° |
| 2026-05-05 21:36 | 37.32807 | -113.84241 | 32823 ft | 415 kts | 34° |
| 2026-05-05 21:37 | 37.37655 | -113.80397 | 32820 ft | 414 kts | 34° |
| 2026-05-05 21:37 | 37.42522 | -113.76535 | 32821 ft | 413 kts | 34° |
| 2026-05-05 21:38 | 37.47372 | -113.72678 | 32815 ft | 412 kts | 34° |
| 2026-05-05 21:38 | 37.52220 | -113.68818 | 32809 ft | 411 kts | 34° |
| 2026-05-05 21:39 | 37.57052 | -113.64967 | 32806 ft | 411 kts | 34° |
| 2026-05-05 21:39 | 37.61871 | -113.61115 | 32803 ft | 409 kts | 34° |
| 2026-05-05 21:40 | 37.66673 | -113.57263 | 32802 ft | 408 kts | 34° |
| 2026-05-05 21:40 | 37.71466 | -113.53424 | 32808 ft | 408 kts | 34° |
| 2026-05-05 21:41 | 37.76257 | -113.49607 | 32817 ft | 406 kts | 34° |
| 2026-05-05 21:41 | 37.81031 | -113.45792 | 32819 ft | 405 kts | 34° |
| 2026-05-05 21:42 | 37.85790 | -113.41977 | 32817 ft | 405 kts | 34° |
| 2026-05-05 21:42 | 37.90541 | -113.38159 | 32814 ft | 404 kts | 34° |
| 2026-05-05 21:43 | 37.95284 | -113.34346 | 32799 ft | 403 kts | 34° |
| 2026-05-05 21:43 | 38.00016 | -113.30533 | 32783 ft | 402 kts | 34° |
| 2026-05-05 21:44 | 38.04704 | -113.26752 | 32776 ft | 402 kts | 34° |
| 2026-05-05 21:44 | 38.09413 | -113.22947 | 32774 ft | 401 kts | 34° |
| 2026-05-05 21:45 | 38.14117 | -113.19141 | 32785 ft | 400 kts | 34° |
| 2026-05-05 21:45 | 38.18810 | -113.15339 | 32808 ft | 400 kts | 34° |
| 2026-05-05 21:46 | 38.23492 | -113.11537 | 32832 ft | 399 kts | 34° |
| 2026-05-05 21:46 | 38.28170 | -113.07741 | 32854 ft | 398 kts | 34° |
| 2026-05-05 21:47 | 38.32837 | -113.03938 | 32876 ft | 398 kts | 34° |
| 2026-05-05 21:47 | 38.37725 | -113.00654 | 32880 ft | 401 kts | 21° |
| 2026-05-05 21:48 | 38.43051 | -112.98539 | 32880 ft | 401 kts | 20° |
| 2026-05-05 21:48 | 38.48328 | -112.96435 | 32879 ft | 400 kts | 20° |
| 2026-05-05 21:49 | 38.53632 | -112.94309 | 32864 ft | 399 kts | 21° |
| 2026-05-05 21:49 | 38.58923 | -112.92187 | 32845 ft | 398 kts | 21° |
| 2026-05-05 21:50 | 38.64204 | -112.90079 | 32822 ft | 397 kts | 20° |
| 2026-05-05 21:50 | 38.69471 | -112.87971 | 32799 ft | 396 kts | 20° |
| 2026-05-05 21:51 | 38.74730 | -112.85854 | 32773 ft | 396 kts | 21° |
| 2026-05-05 21:51 | 38.79986 | -112.83732 | 32757 ft | 395 kts | 20° |
| 2026-05-05 21:52 | 38.87836 | -112.80507 | 32762 ft | 394 kts | 22° |
| 2026-05-05 21:53 | 38.92985 | -112.78134 | 32777 ft | 393 kts | 23° |
| 2026-05-05 21:53 | 38.98111 | -112.75708 | 32790 ft | 392 kts | 23° |
| 2026-05-05 21:54 | 39.03241 | -112.73309 | 32796 ft | 392 kts | 22° |
| 2026-05-05 21:54 | 39.08385 | -112.70948 | 32800 ft | 392 kts | 22° |
| 2026-05-05 21:55 | 39.13484 | -112.68592 | 32812 ft | 392 kts | 22° |
| 2026-05-05 21:55 | 39.18614 | -112.66209 | 32802 ft | 392 kts | 22° |
| 2026-05-05 21:55 | 39.21186 | -112.65011 | 32358 ft | 394 kts | 22° |
| 2026-05-05 21:56 | 39.23767 | -112.63811 | 31928 ft | 395 kts | 22° |
| 2026-05-05 21:56 | 39.26364 | -112.62599 | 31508 ft | 398 kts | 22° |
| 2026-05-05 21:56 | 39.28971 | -112.61376 | 31087 ft | 400 kts | 22° |
| 2026-05-05 21:56 | 39.31603 | -112.60142 | 30681 ft | 403 kts | 22° |
| 2026-05-05 21:57 | 39.34242 | -112.58918 | 30274 ft | 405 kts | 22° |
| 2026-05-05 21:57 | 39.36910 | -112.57675 | 29837 ft | 408 kts | 21° |
| 2026-05-05 21:57 | 39.39592 | -112.56421 | 29355 ft | 411 kts | 21° |
| 2026-05-05 21:57 | 39.42288 | -112.55155 | 28881 ft | 414 kts | 21° |
| 2026-05-05 21:58 | 39.44999 | -112.53880 | 28495 ft | 415 kts | 21° |
| 2026-05-05 21:58 | 39.47712 | -112.52604 | 28145 ft | 415 kts | 21° |
| 2026-05-05 21:58 | 39.50423 | -112.51332 | 27785 ft | 414 kts | 21° |
| 2026-05-05 21:58 | 39.53129 | -112.50061 | 27433 ft | 414 kts | 21° |
| 2026-05-05 21:59 | 39.55786 | -112.48762 | 27079 ft | 413 kts | 24° |
| 2026-05-05 21:59 | 39.58379 | -112.47199 | 26742 ft | 412 kts | 26° |
| 2026-05-05 21:59 | 39.60968 | -112.45572 | 26399 ft | 412 kts | 26° |
| 2026-05-05 21:59 | 39.63535 | -112.43922 | 25921 ft | 411 kts | 26° |
| 2026-05-05 22:00 | 39.66091 | -112.42264 | 25419 ft | 410 kts | 26° |
| 2026-05-05 22:00 | 39.68648 | -112.40606 | 24925 ft | 410 kts | 26° |
| 2026-05-05 22:00 | 39.71202 | -112.38955 | 24502 ft | 410 kts | 26° |
| 2026-05-05 22:00 | 39.73760 | -112.37310 | 24151 ft | 411 kts | 26° |
| 2026-05-05 22:01 | 39.76331 | -112.35662 | 23800 ft | 411 kts | 25° |
| 2026-05-05 22:01 | 39.78898 | -112.34020 | 23422 ft | 410 kts | 25° |
| 2026-05-05 22:01 | 39.81466 | -112.32379 | 22606 ft | 410 kts | 25° |
| 2026-05-05 22:01 | 39.84008 | -112.30753 | 22047 ft | 404 kts | 25° |
| 2026-05-05 22:02 | 39.86515 | -112.29145 | 21483 ft | 400 kts | 25° |
| 2026-05-05 22:02 | 39.88997 | -112.27547 | 20952 ft | 396 kts | 25° |
| 2026-05-05 22:02 | 39.91451 | -112.25966 | 20432 ft | 392 kts | 25° |
| 2026-05-05 22:02 | 39.93884 | -112.24398 | 19917 ft | 388 kts | 25° |
| 2026-05-05 22:03 | 39.96295 | -112.22845 | 19435 ft | 385 kts | 25° |
| 2026-05-05 22:03 | 39.98681 | -112.21308 | 18961 ft | 381 kts | 25° |
| 2026-05-05 22:03 | 40.01053 | -112.19780 | 18481 ft | 378 kts | 25° |
| 2026-05-05 22:03 | 40.03403 | -112.18264 | 17998 ft | 376 kts | 25° |
| 2026-05-05 22:04 | 40.05701 | -112.16779 | 17652 ft | 369 kts | 25° |
| 2026-05-05 22:04 | 40.08023 | -112.15277 | 17088 ft | 367 kts | 25° |
| 2026-05-05 22:04 | 40.10298 | -112.13806 | 16623 ft | 364 kts | 25° |
| 2026-05-05 22:04 | 40.12530 | -112.12361 | 16145 ft | 361 kts | 25° |
| 2026-05-05 22:05 | 40.14773 | -112.10907 | 15673 ft | 359 kts | 25° |
| 2026-05-05 22:05 | 40.17000 | -112.09462 | 15178 ft | 357 kts | 25° |
| 2026-05-05 22:05 | 40.19217 | -112.08024 | 14682 ft | 354 kts | 25° |
| 2026-05-05 22:05 | 40.21381 | -112.06619 | 14187 ft | 340 kts | 25° |
| 2026-05-05 22:06 | 40.23494 | -112.05246 | 13708 ft | 339 kts | 25° |
| 2026-05-05 22:06 | 40.25602 | -112.03877 | 13173 ft | 339 kts | 25° |
| 2026-05-05 22:06 | 40.27706 | -112.02508 | 12667 ft | 337 kts | 25° |
| 2026-05-05 22:06 | 40.29802 | -112.01144 | 12161 ft | 336 kts | 25° |
| 2026-05-05 22:07 | 40.31895 | -111.99781 | 11638 ft | 335 kts | 25° |
| 2026-05-05 22:07 | 40.33976 | -111.98425 | 11113 ft | 334 kts | 25° |
| 2026-05-05 22:07 | 40.36057 | -111.97066 | 10691 ft | 330 kts | 25° |
| 2026-05-05 22:07 | 40.38106 | -111.95947 | 10563 ft | 307 kts | 14° |
| 2026-05-05 22:08 | 40.40107 | -111.95442 | 10484 ft | 280 kts | 3° |
| 2026-05-05 22:08 | 40.42034 | -111.95451 | 10414 ft | 275 kts | 353° |
| 2026-05-05 22:08 | 40.43934 | -111.95665 | 10308 ft | 274 kts | 354° |
| 2026-05-05 22:08 | 40.45805 | -111.95877 | 10193 ft | 270 kts | 353° |
| 2026-05-05 22:09 | 40.47642 | -111.96091 | 10050 ft | 262 kts | 353° |
| 2026-05-05 22:09 | 40.49448 | -111.96300 | 9754 ft | 259 kts | 353° |
| 2026-05-05 22:09 | 40.51234 | -111.96506 | 9414 ft | 258 kts | 353° |
| 2026-05-05 22:09 | 40.52905 | -111.96698 | 9109 ft | 257 kts | 353° |
| 2026-05-05 22:10 | 40.54685 | -111.96904 | 8751 ft | 256 kts | 353° |
| 2026-05-05 22:10 | 40.56453 | -111.97108 | 8407 ft | 254 kts | 353° |
| 2026-05-05 22:10 | 40.58210 | -111.97311 | 8073 ft | 252 kts | 353° |
| 2026-05-05 22:10 | 40.59950 | -111.97512 | 7743 ft | 250 kts | 353° |
| 2026-05-05 22:11 | 40.61675 | -111.97712 | 7418 ft | 248 kts | 353° |
| 2026-05-05 22:11 | 40.63372 | -111.97907 | 7097 ft | 238 kts | 353° |
| 2026-05-05 22:11 | 40.64976 | -111.98092 | 6805 ft | 225 kts | 354° |
| 2026-05-05 22:11 | 40.66501 | -111.98270 | 6523 ft | 217 kts | 354° |
| 2026-05-05 22:12 | 40.67957 | -111.98439 | 6261 ft | 203 kts | 354° |
| 2026-05-05 22:12 | 40.69326 | -111.98598 | 5969 ft | 192 kts | 355° |
| 2026-05-05 22:12 | 40.70606 | -111.98746 | 5722 ft | 176 kts | 355° |
| 2026-05-05 22:12 | 40.71779 | -111.98883 | 5488 ft | 164 kts | 355° |
| 2026-05-05 22:13 | 40.72895 | -111.99012 | 5281 ft | 157 kts | 354° |
| 2026-05-05 22:13 | 40.73956 | -111.99135 | 5053 ft | 154 kts | 355° |
| 2026-05-05 22:13 | 40.75020 | -111.99259 | 4828 ft | 153 kts | 355° |
| 2026-05-05 22:13 | 40.76079 | -111.99385 | 4613 ft | 152 kts | 356° |
| 2026-05-05 22:14 | 40.77131 | -111.99519 | 4350 ft | 152 kts | 359° |
| 2026-05-05 22:14 | 40.78176 | -111.99629 | 4232 ft | 141 kts | 357° |
| 2026-05-05 22:14 | 40.78999 | -111.99723 | 4233 ft | 94 kts | 354° |
| 2026-05-05 22:14 | 40.79482 | -111.99778 | 4229 ft | 47 kts | 355° |
| 2026-05-05 22:15 | 40.79728 | -111.99778 | 4230 ft | 23 kts | 23° |
| 2026-05-05 22:15 | 40.79836 | -111.99681 | 4231 ft | 6 kts | 45° |
| 2026-05-05 22:15 | 40.79837 | -111.99626 | 4231 ft | 9 kts | 121° |
| 2026-05-05 22:15 | 40.79751 | -111.99592 | 4231 ft | 16 kts | 174° |
| 2026-05-05 22:16 | 40.79638 | -111.99578 | 4231 ft | 17 kts | 175° |
| 2026-05-05 22:16 | 40.79516 | -111.99562 | 4231 ft | 18 kts | 174° |
| 2026-05-05 22:16 | 40.79389 | -111.99549 | 4231 ft | 14 kts | 175° |
| 2026-05-05 22:16 | 40.79294 | -111.99539 | 4231 ft | 4 kts | 175° |
| 2026-05-05 22:17 | 40.79278 | -111.99537 | 4231 ft | 1 kts | 175° |
| 2026-05-05 22:17 | 40.79275 | -111.99537 | 4231 ft | 0 kts | 175° |
| 2026-05-05 22:18 | 40.79256 | -111.99535 | 4231 ft | 5 kts | 175° |
| 2026-05-05 22:18 | 40.79222 | -111.99531 | 4231 ft | 6 kts | 174° |
| 2026-05-05 22:18 | 40.79176 | -111.99507 | 4231 ft | 9 kts | 130° |
| 2026-05-05 22:18 | 40.79146 | -111.99432 | 4231 ft | 10 kts | 146° |
| 2026-05-05 22:19 | 40.79102 | -111.99352 | 4231 ft | 14 kts | 93° |
| 2026-05-05 22:19 | 40.79029 | -111.99289 | 4231 ft | 14 kts | 174° |
| 2026-05-05 22:19 | 40.78924 | -111.99276 | 4231 ft | 16 kts | 175° |
| 2026-05-05 22:19 | 40.78810 | -111.99264 | 4231 ft | 17 kts | 175° |
| 2026-05-05 22:20 | 40.78726 | -111.99195 | 4231 ft | 16 kts | 91° |
| 2026-05-05 22:20 | 40.78737 | -111.99041 | 4231 ft | 17 kts | 85° |
| 2026-05-05 22:20 | 40.78748 | -111.98878 | 4231 ft | 18 kts | 85° |
| 2026-05-05 22:20 | 40.78762 | -111.98779 | 4231 ft | 6 kts | 48° |
| 2026-05-05 22:21 | 40.78797 | -111.98772 | 4231 ft | 4 kts | 3° |
| 2026-05-05 22:21 | 40.78821 | -111.98769 | 4231 ft | 3 kts | 5° |
| 2026-05-05 22:21 | 40.78833 | -111.98768 | 4231 ft | 0 kts | 5° |